Time;durP1;ratioP1;P1;durP2;ratioP2;P2;SDS_P1;SDS_P2;PMS_P1;PMS_P2;Temp;Humidity;BMP_temperature;BMP_pressure;BME280_temperature;BME280_humidity;BME280_pressure;Samples;Min_cycle;Max_cycle;Signal;HPM_P1;HPM_P2
2022/06/23 00:00:24;;;;;;;4.15;1.42;;;;;;;27.13;30.65;100658.56;5071178;28;20502;-64
2022/06/23 00:03:21;;;;;;;3.40;1.25;;;;;;;27.18;31.23;100668.59;5112132;27;20978;-66
2022/06/23 00:05:55;;;;;;;3.78;1.30;;;;;;;27.14;32.87;100656.66;5097311;28;20412;-65
2022/06/23 00:08:22;;;;;;;1.23;1.13;;;;;;;27.18;33.03;100663.16;5067490;28;20428;-66
2022/06/23 00:15:18;;;;;;;2.60;1.30;;;;;;;27.05;33.88;100646.38;5091489;28;20950;-63
2022/06/23 00:17:48;;;;;;;3.67;1.30;;;;;;;27.17;33.37;100645.19;5092465;28;20432;-64
2022/06/23 00:20:19;;;;;;;5.78;1.60;;;;;;;27.22;33.69;100648.69;5104716;28;20459;-64
2022/06/23 00:22:52;;;;;;;3.25;1.40;;;;;;;27.29;33.83;100644.88;5101850;28;20415;-64
2022/06/23 00:27:30;;;;;;;4.18;1.52;;;;;;;27.35;33.26;100644.56;5081652;27;20412;-66
2022/06/23 00:30:00;;;;;;;2.90;1.40;;;;;;;27.37;33.53;100645.09;5065655;28;20506;-66
2022/06/23 00:32:29;;;;;;;3.45;1.50;;;;;;;27.41;32.99;100646.16;5059783;28;20443;-67
2022/06/23 00:34:59;;;;;;;3.10;1.60;;;;;;;27.42;33.27;100641.50;5057764;28;20991;-66
2022/06/23 00:37:27;;;;;;;4.45;1.60;;;;;;;27.44;33.18;100640.13;5065226;28;20416;-65
2022/06/23 00:39:56;;;;;;;3.13;1.57;;;;;;;27.46;33.11;100637.13;5065285;28;20813;-63
2022/06/23 00:42:27;;;;;;;2.17;1.30;;;;;;;27.47;33.09;100638.75;5065383;28;20410;-65
2022/06/23 00:44:58;;;;;;;2.28;1.40;;;;;;;27.49;33.16;100641.19;5065634;28;20901;-64
2022/06/23 00:47:31;;;;;;;2.92;1.67;;;;;;;27.48;33.10;100643.09;5065676;28;20428;-63
2022/06/23 00:50:03;;;;;;;3.00;1.70;;;;;;;27.48;33.33;100645.81;5065231;28;20507;-66
2022/06/23 00:52:37;;;;;;;2.73;1.90;;;;;;;27.49;33.11;100641.19;5065282;28;20433;-66
2022/06/23 00:55:11;;;;;;;6.90;3.00;;;;;;;27.46;33.55;100632.50;5065677;28;20451;-66
2022/06/23 00:57:45;;;;;;;5.33;2.90;;;;;;;27.46;33.44;100643.38;5065673;28;20412;-66
2022/06/23 01:00:18;;;;;;;5.95;3.50;;;;;;;27.45;33.37;100628.13;5055011;28;20507;-66
2022/06/23 01:05:16;;;;;;;5.28;2.78;;;;;;;27.42;33.41;100611.56;5111006;27;20411;-66
2022/06/23 01:09:03;;;;;;;6.93;2.90;;;;;;;27.38;33.59;100614.03;5091818;27;20455;-64
2022/06/23 01:11:38;;;;;;;5.90;3.40;;;;;;;27.36;33.44;100610.00;5081275;28;20918;-64
2022/06/23 01:14:17;;;;;;;6.07;2.50;;;;;;;27.32;33.01;100617.91;5084692;28;20421;-65
2022/06/23 01:16:48;;;;;;;4.40;2.40;;;;;;;27.26;33.53;100614.44;5067529;28;20454;-65
2022/06/23 01:19:41;;;;;;;3.85;2.53;;;;;;;27.24;33.37;100615.75;5077920;28;20479;-64
2022/06/23 01:22:20;;;;;;;4.63;2.30;;;;;;;27.20;33.88;100622.88;5082640;28;20426;-65
2022/06/23 01:24:58;;;;;;;5.10;2.50;;;;;;;27.16;34.09;100611.75;5077814;28;20420;-65
2022/06/23 01:27:49;;;;;;;4.70;2.30;;;;;;;27.13;34.38;100615.03;5082313;28;20430;-65
2022/06/23 01:30:20;;;;;;;4.70;2.42;;;;;;;27.08;34.91;100604.16;5066639;28;20934;-65
2022/06/23 01:32:55;;;;;;;4.03;2.50;;;;;;;27.06;35.04;100606.38;5086309;28;20497;-64
2022/06/23 01:35:31;;;;;;;5.85;2.50;;;;;;;27.02;34.74;100608.03;5081585;28;20422;-65
2022/06/23 01:38:03;;;;;;;4.50;2.53;;;;;;;26.99;35.05;100612.16;5076555;28;20430;-64
2022/06/23 01:40:41;;;;;;;3.58;2.33;;;;;;;26.95;34.97;100607.53;5073876;28;20410;-65
2022/06/23 01:45:04;;;;;;;4.55;2.40;;;;;;;26.90;34.88;100608.38;5114664;27;20457;-65
2022/06/23 01:47:41;;;;;;;7.03;2.63;;;;;;;26.88;34.68;100616.00;5102604;28;20422;-66
2022/06/23 01:50:28;;;;;;;4.30;2.27;;;;;;;26.84;34.90;100620.41;5105321;28;20416;-65
2022/06/23 01:53:11;;;;;;;6.20;2.53;;;;;;;26.81;35.25;100618.22;5095184;28;20978;-65
2022/06/23 01:55:52;;;;;;;3.70;2.30;;;;;;;26.79;35.60;100617.69;5092149;28;20418;-65
2022/06/23 01:58:23;;;;;;;4.72;2.30;;;;;;;26.76;35.14;100621.81;5090385;28;20423;-65
2022/06/23 02:00:56;;;;;;;4.05;2.40;;;;;;;26.74;35.23;100626.72;5098268;28;20424;-66
2022/06/23 02:03:29;;;;;;;4.40;2.53;;;;;;;26.72;35.18;100617.19;5090708;28;20430;-66
2022/06/23 02:06:04;;;;;;;3.23;2.37;;;;;;;26.71;35.21;100627.28;5102700;28;20507;-65
2022/06/23 02:08:37;;;;;;;4.67;2.30;;;;;;;26.67;35.19;100618.06;5103657;28;20419;-65
2022/06/23 02:11:13;;;;;;;3.72;2.08;;;;;;;26.64;35.02;100627.56;5100938;28;20412;-66
2022/06/23 02:13:48;;;;;;;5.00;2.10;;;;;;;26.63;34.73;100636.00;5106272;28;20418;-66
2022/06/23 02:16:23;;;;;;;3.70;1.90;;;;;;;26.59;35.15;100626.75;5098880;28;20532;-65
2022/06/23 02:18:56;;;;;;;3.50;2.00;;;;;;;26.56;34.93;100619.16;5093462;28;20409;-66
2022/06/23 02:21:29;;;;;;;3.75;2.15;;;;;;;26.45;35.09;100618.38;5102320;28;20418;-64
2022/06/23 02:24:00;;;;;;;2.93;1.83;;;;;;;26.37;35.07;100610.81;5095404;28;20436;-66
2022/06/23 02:26:34;;;;;;;4.03;2.10;;;;;;;26.28;34.98;100599.72;5092016;28;20427;-65
2022/06/23 02:29:06;;;;;;;3.05;1.83;;;;;;;26.24;35.05;100610.31;5092826;28;20421;-65
2022/06/23 02:31:43;;;;;;;4.53;1.97;;;;;;;26.21;35.19;100612.78;5105735;28;20802;-66
2022/06/23 02:34:17;;;;;;;4.45;2.00;;;;;;;26.18;35.25;100621.47;5099399;28;20414;-65
2022/06/23 02:37:00;;;;;;;5.97;1.97;;;;;;;26.15;35.50;100627.50;5096882;28;20419;-65
2022/06/23 02:39:35;;;;;;;4.65;2.10;;;;;;;26.12;35.40;100618.78;5096431;28;20408;-64
2022/06/23 02:42:13;;;;;;;3.72;2.10;;;;;;;26.10;35.73;100610.09;5092160;28;20934;-65
2022/06/23 02:45:16;;;;;;;2.47;1.90;;;;;;;26.04;35.56;100605.78;5091673;28;20960;-64
2022/06/23 02:48:03;;;;;;;4.18;2.00;;;;;;;26.01;35.56;100614.47;5104791;28;20417;-65
2022/06/23 02:50:47;;;;;;;4.13;2.10;;;;;;;25.95;35.52;100607.44;5100706;28;20419;-66
2022/06/23 02:53:35;;;;;;;3.60;1.77;;;;;;;25.94;35.67;100603.88;5095593;28;20414;-65
2022/06/23 02:56:24;;;;;;;3.30;2.10;;;;;;;25.92;35.67;100600.59;5093009;28;20760;-65
2022/06/23 02:58:57;;;;;;;4.40;2.28;;;;;;;25.95;35.93;100615.59;5084042;28;20416;-65
2022/06/23 03:01:31;;;;;;;4.40;2.30;;;;;;;25.96;36.02;100606.34;5085535;28;20435;-65
2022/06/23 03:04:05;;;;;;;4.13;2.20;;;;;;;25.97;36.30;100607.97;5088314;28;20429;-64
2022/06/23 03:06:41;;;;;;;3.47;2.17;;;;;;;25.99;36.37;100621.28;5085421;28;20421;-65
2022/06/23 03:09:14;;;;;;;5.70;2.65;;;;;;;26.00;36.58;100625.59;5084322;28;20413;-65
2022/06/23 03:11:54;;;;;;;3.53;2.10;;;;;;;26.00;36.66;100629.16;5087353;28;20544;-64
2022/06/23 03:14:32;;;;;;;4.17;2.30;;;;;;;26.02;36.79;100626.13;5090347;28;20413;-65
2022/06/23 03:17:05;;;;;;;4.10;2.20;;;;;;;26.03;36.65;100628.59;5085676;28;20419;-64
2022/06/23 03:19:40;;;;;;;4.05;2.38;;;;;;;26.02;36.95;100621.53;5085410;28;20899;-65
2022/06/23 03:22:19;;;;;;;3.10;2.00;;;;;;;26.03;36.77;100625.88;5086214;28;20884;-65
2022/06/23 03:24:53;;;;;;;5.22;2.40;;;;;;;26.03;36.97;100616.91;5090086;28;20897;-65
2022/06/23 03:27:28;;;;;;;4.05;2.20;;;;;;;26.03;36.67;100616.91;5088894;28;20919;-64
2022/06/23 03:30:00;;;;;;;4.40;2.40;;;;;;;26.03;36.73;100622.34;5078330;28;20418;-65
2022/06/23 03:32:32;;;;;;;4.30;2.40;;;;;;;26.03;36.85;100627.78;5088679;28;20420;-65
2022/06/23 03:35:05;;;;;;;5.35;2.75;;;;;;;26.00;37.04;100634.59;5090956;28;20515;-65
2022/06/23 03:37:44;;;;;;;7.10;2.40;;;;;;;26.01;37.07;100638.91;5078793;28;20422;-69
2022/06/23 03:43:18;;;;;;;4.40;2.33;;;;;;;25.99;37.08;100668.25;5087587;28;20417;-65
2022/06/23 03:45:51;;;;;;;8.93;2.38;;;;;;;25.85;36.78;100695.13;5087301;28;20423;-65
2022/06/23 03:48:25;;;;;;;6.05;2.42;;;;;;;25.79;36.93;100704.38;5082918;28;20425;-65
2022/06/23 03:51:00;;;;;;;5.25;2.10;;;;;;;25.77;37.32;100714.69;5080351;28;20415;-65
2022/06/23 03:53:32;;;;;;;5.80;2.22;;;;;;;25.79;37.51;100717.13;5080893;28;20411;-65
2022/06/23 03:56:03;;;;;;;3.63;1.85;;;;;;;25.76;37.70;100732.06;5076959;28;20803;-65
2022/06/23 03:58:42;;;;;;;4.65;2.10;;;;;;;25.72;38.02;100755.41;5079336;28;20417;-65
2022/06/23 04:01:19;;;;;;;6.13;2.27;;;;;;;25.72;38.56;100785.28;5077244;28;20474;-65
2022/06/23 04:03:50;;;;;;;2.97;1.80;;;;;;;25.63;38.60;100808.63;5072486;28;20432;-65
2022/06/23 04:06:31;;;;;;;3.88;1.77;;;;;;;25.55;38.56;100828.94;5075043;28;20537;-66
2022/06/23 04:09:06;;;;;;;3.25;2.00;;;;;;;25.50;38.92;100837.91;5075751;28;20401;-70
2022/06/23 04:11:44;;;;;;;6.50;2.17;;;;;;;25.50;39.42;100861.53;5069241;28;20422;-65
2022/06/23 04:14:18;;;;;;;3.20;2.05;;;;;;;25.44;39.64;100876.94;5070514;28;20909;-65
2022/06/23 04:16:46;;;;;;;3.92;1.73;;;;;;;25.37;39.79;100890.78;5071929;28;20498;-65
2022/06/23 04:19:20;;;;;;;3.75;1.90;;;;;;;25.23;40.26;100921.31;5070950;28;20418;-65
2022/06/23 04:21:57;;;;;;;5.78;2.30;;;;;;;25.09;40.75;100945.41;5070250;28;20441;-65
2022/06/23 04:25:33;;;;;;;4.00;2.30;;;;;;;24.88;41.73;100969.66;5095168;27;20417;-65
2022/06/23 04:28:02;;;;;;;3.70;2.13;;;;;;;24.77;42.32;100989.63;5089479;28;21021;-65
2022/06/23 04:30:35;;;;;;;5.97;2.03;;;;;;;24.53;43.25;101008.94;5086750;28;20433;-65
2022/06/23 04:33:04;;;;;;;5.35;2.20;;;;;;;24.53;43.93;101014.34;5087871;28;20425;-65
2022/06/23 04:35:35;;;;;;;4.63;2.00;;;;;;;24.55;44.32;101009.50;5087662;28;20410;-65
2022/06/23 04:38:08;;;;;;;4.47;1.88;;;;;;;24.49;44.60;100987.97;5086309;28;20434;-65
2022/06/23 04:40:49;;;;;;;6.18;2.40;;;;;;;24.43;45.09;100960.00;5100016;28;20495;-65
2022/06/23 04:43:20;;;;;;;3.92;1.90;;;;;;;24.41;44.43;100913.41;5100182;28;20914;-65
2022/06/23 04:45:59;;;;;;;4.82;2.70;;;;;;;24.40;45.45;100865.72;5099768;28;20409;-65
2022/06/23 04:48:32;;;;;;;8.05;3.78;;;;;;;24.31;44.66;100832.84;5100610;28;20425;-65
2022/06/23 04:51:04;;;;;;;5.63;3.17;;;;;;;24.01;45.13;100792.78;5102335;28;20409;-65
2022/06/23 04:53:51;;;;;;;6.03;3.20;;;;;;;23.67;45.66;100766.72;5097993;28;20419;-68
2022/06/23 04:56:45;;;;;;;9.40;4.10;;;;;;;23.22;47.51;100740.03;5100594;28;20413;-65
2022/06/23 05:00:53;;;;;;;5.50;2.60;;;;;;;22.79;48.37;100701.91;5102076;27;21316;-65
2022/06/23 05:03:26;;;;;;;35.65;4.13;;;;;;;22.79;49.09;100698.41;5100638;28;20420;-65
2022/06/23 05:06:01;;;;;;;8.88;2.95;;;;;;;22.72;49.47;100714.81;5099287;28;20423;-66
2022/06/23 05:08:32;;;;;;;5.15;2.80;;;;;;;22.74;49.87;100717.25;5100814;28;20413;-69
2022/06/23 05:11:10;;;;;;;7.85;3.20;;;;;;;22.66;50.00;100729.34;5102670;28;20420;-67
2022/06/23 05:13:45;;;;;;;6.90;2.65;;;;;;;22.76;49.17;100751.09;5103249;28;20465;-65
2022/06/23 05:16:20;;;;;;;3.70;2.40;;;;;;;22.83;49.04;100749.03;5101904;28;20409;-66
2022/06/23 05:18:51;;;;;;;8.43;4.88;;;;;;;22.89;49.09;100753.41;5103709;28;20452;-66
2022/06/23 05:21:22;;;;;;;3.55;2.25;;;;;;;22.89;48.82;100755.31;5102656;28;20877;-65
2022/06/23 05:23:54;;;;;;;6.53;2.17;;;;;;;22.97;48.64;100756.75;5101508;28;20423;-66
2022/06/23 05:26:25;;;;;;;3.15;2.30;;;;;;;23.03;48.11;100771.94;5099466;28;20413;-65
2022/06/23 05:28:58;;;;;;;4.23;2.40;;;;;;;23.11;49.08;100786.97;5102316;28;20424;-66
2022/06/23 05:31:32;;;;;;;6.15;3.10;;;;;;;23.16;49.98;100798.66;5103550;28;20513;-65
2022/06/23 05:34:05;;;;;;;6.78;3.50;;;;;;;23.22;50.62;100810.34;5090237;28;20447;-65
2022/06/23 05:36:42;;;;;;;6.53;3.60;;;;;;;23.26;50.56;100828.53;5103499;28;20408;-65
2022/06/23 05:39:17;;;;;;;5.83;3.27;;;;;;;23.27;50.54;100838.28;5103902;28;20425;-65
2022/06/23 05:41:48;;;;;;;6.10;3.67;;;;;;;23.28;51.52;100839.06;5096573;28;20415;-67
2022/06/23 05:44:20;;;;;;;6.50;3.40;;;;;;;23.32;51.22;100850.22;5099936;28;20404;-67
2022/06/23 05:46:50;;;;;;;6.97;4.18;;;;;;;23.31;51.40;100848.59;5096985;28;20919;-65
2022/06/23 05:49:20;;;;;;;6.32;4.10;;;;;;;23.29;51.24;100855.06;5094670;28;20469;-65
2022/06/23 05:51:53;;;;;;;6.45;3.50;;;;;;;23.30;51.33;100882.94;5100054;28;20408;-66
2022/06/23 05:54:25;;;;;;;7.95;4.82;;;;;;;23.30;51.61;100882.94;5102687;28;20419;-67
2022/06/23 05:56:57;;;;;;;4.90;3.30;;;;;;;23.31;51.46;100895.38;5094770;28;20410;-65
2022/06/23 05:59:29;;;;;;;5.30;3.85;;;;;;;23.29;51.65;100903.75;5091257;28;20436;-65
2022/06/23 06:02:05;;;;;;;5.45;3.60;;;;;;;23.31;51.32;100889.97;5099614;28;20413;-66
2022/06/23 06:04:37;;;;;;;5.30;2.95;;;;;;;23.29;51.25;100876.69;5088360;28;20491;-65
2022/06/23 06:07:05;;;;;;;4.87;3.27;;;;;;;23.29;51.04;100879.41;5102963;28;20465;-68
2022/06/23 06:09:37;;;;;;;4.72;3.42;;;;;;;23.32;51.17;100874.56;5100113;28;20410;-66
2022/06/23 06:12:08;;;;;;;5.03;3.15;;;;;;;23.33;51.26;100858.09;5084013;28;20405;-67
2022/06/23 06:14:39;;;;;;;6.35;4.05;;;;;;;23.26;51.17;100842.06;5079654;28;20478;-65
2022/06/23 06:17:08;;;;;;;6.85;4.20;;;;;;;23.34;51.97;100858.91;5079142;28;20421;-65
2022/06/23 06:19:36;;;;;;;6.03;3.83;;;;;;;23.37;52.17;100845.72;5085782;28;21116;-65
2022/06/23 06:22:26;;;;;;;9.55;3.97;;;;;;;23.40;51.87;100814.63;5081165;28;20415;-66
2022/06/23 06:24:56;;;;;;;7.38;4.18;;;;;;;23.40;50.75;100837.06;5082793;28;20419;-65
2022/06/23 06:27:24;;;;;;;8.10;5.07;;;;;;;23.41;51.84;100862.25;5089145;28;20774;-66
2022/06/23 06:29:52;;;;;;;5.82;3.70;;;;;;;23.45;52.09;100876.91;5088398;28;20899;-67
2022/06/23 06:32:30;;;;;;;4.25;3.25;;;;;;;23.48;51.51;100882.63;5072536;28;20411;-68
2022/06/23 06:35:06;;;;;;;5.35;3.83;;;;;;;23.53;51.23;100898.09;5086159;28;20409;-70
2022/06/23 06:37:42;;;;;;;6.63;3.20;;;;;;;23.58;51.64;100892.75;5080525;28;20409;-67
2022/06/23 06:40:09;;;;;;;5.90;3.28;;;;;;;23.64;51.43;100883.63;5088239;28;20431;-67
2022/06/23 06:42:42;;;;;;;5.37;3.33;;;;;;;23.69;50.96;100880.16;5080691;28;20418;-66
2022/06/23 06:45:12;;;;;;;4.30;3.55;;;;;;;23.72;51.58;100887.78;5087897;28;20451;-67
2022/06/23 06:47:42;;;;;;;6.32;4.00;;;;;;;23.79;51.97;100890.28;5081071;28;20409;-67
2022/06/23 06:50:31;;;;;;;7.55;5.03;;;;;;;23.78;51.60;100894.06;5087562;28;20933;-66
2022/06/23 06:53:02;;;;;;;7.95;4.45;;;;;;;23.84;51.56;100917.41;5081083;28;20405;-67
2022/06/23 06:55:33;;;;;;;6.78;4.18;;;;;;;23.84;51.56;100925.53;5087505;28;20405;-67
2022/06/23 06:58:07;;;;;;;6.13;3.78;;;;;;;23.85;51.52;100886.59;5080811;28;20404;-67
2022/06/23 07:00:39;;;;;;;6.90;3.60;;;;;;;23.85;51.30;100856.81;5087721;28;20424;-67
2022/06/23 07:03:12;;;;;;;6.93;4.22;;;;;;;23.88;51.49;100879.84;5080423;28;20406;-66
2022/06/23 07:05:43;;;;;;;4.68;3.35;;;;;;;23.89;51.56;100913.97;5088293;28;20424;-66
2022/06/23 07:08:18;;;;;;;4.85;3.03;;;;;;;23.93;51.52;100915.94;5080603;28;20404;-66
2022/06/23 07:10:49;;;;;;;4.57;2.80;;;;;;;23.95;51.67;100915.66;5087592;28;20405;-66
2022/06/23 07:13:23;;;;;;;4.72;2.80;;;;;;;23.92;51.21;100918.88;5080191;28;20421;-67
2022/06/23 07:15:54;;;;;;;7.28;3.50;;;;;;;23.94;51.56;100924.84;5087519;28;20424;-67
2022/06/23 07:18:29;;;;;;;4.88;3.45;;;;;;;23.94;51.94;100950.03;5080193;28;20409;-67
2022/06/23 07:21:02;;;;;;;5.80;2.97;;;;;;;23.95;51.39;100940.84;5087063;28;20425;-68
2022/06/23 07:23:36;;;;;;;5.07;2.80;;;;;;;23.94;51.00;100935.69;5079292;28;20409;-66
2022/06/23 07:26:22;;;;;;;5.28;3.60;;;;;;;23.95;51.37;100921.91;5086946;28;20412;-66
2022/06/23 07:30:12;;;;;;;4.38;3.17;;;;;;;23.98;50.43;100913.25;5074508;27;20404;-67
2022/06/23 07:32:47;;;;;;;3.97;2.80;;;;;;;23.94;50.90;100920.25;5053759;28;20506;-67
2022/06/23 07:35:24;;;;;;;5.03;3.17;;;;;;;24.02;50.60;100921.69;5066219;28;20451;-67
2022/06/23 07:38:00;;;;;;;7.38;3.10;;;;;;;24.10;51.09;100920.44;5066747;28;20450;-67
2022/06/23 07:40:32;;;;;;;5.78;2.88;;;;;;;24.17;50.98;100918.34;5066098;28;20494;-67
2022/06/23 07:43:05;;;;;;;4.28;3.00;;;;;;;24.22;50.79;100912.97;5066804;28;20495;-68
2022/06/23 07:45:41;;;;;;;4.93;2.88;;;;;;;24.27;50.64;100921.13;5066037;28;20494;-67
2022/06/23 07:48:08;;;;;;;3.92;2.63;;;;;;;24.30;50.64;100925.22;5066077;28;20514;-67
2022/06/23 07:50:35;;;;;;;5.60;3.00;;;;;;;24.32;50.28;100934.72;5065864;28;20499;-66
2022/06/23 07:53:02;;;;;;;3.20;2.72;;;;;;;24.36;50.03;100932.31;5066278;28;20423;-67
2022/06/23 07:55:37;;;;;;;4.30;3.30;;;;;;;24.39;50.00;100931.81;5053846;28;20496;-67
2022/06/23 07:58:04;;;;;;;4.43;3.17;;;;;;;24.43;50.35;100943.75;5052292;28;20419;-65
2022/06/23 08:00:38;;;;;;;6.80;3.25;;;;;;;24.45;50.63;100952.44;5065993;28;20473;-67
2022/06/23 08:03:13;;;;;;;5.63;3.58;;;;;;;24.45;49.81;100929.94;5065928;28;20408;-68
2022/06/23 08:05:44;;;;;;;6.07;2.92;;;;;;;24.42;49.18;100912.34;5065898;28;20421;-67
2022/06/23 08:08:18;;;;;;;6.23;3.00;;;;;;;24.39;49.28;100907.41;5065497;28;20506;-66
2022/06/23 08:10:46;;;;;;;3.72;3.10;;;;;;;24.35;50.04;100914.44;5065726;28;20834;-66
2022/06/23 08:13:18;;;;;;;6.45;3.22;;;;;;;24.25;49.85;100928.69;5065581;28;20418;-66
2022/06/23 08:18:40;;;;;;;4.32;2.55;;;;;;;23.89;50.53;100949.16;5052938;28;20778;-66
2022/06/23 08:21:17;;;;;;;4.78;2.83;;;;;;;23.81;50.76;100947.72;5065903;28;20419;-66
2022/06/23 08:23:50;;;;;;;4.18;2.67;;;;;;;23.73;50.68;100954.34;5053278;28;20494;-67
2022/06/23 08:26:18;;;;;;;6.57;3.35;;;;;;;23.69;51.05;100952.41;5065203;28;20984;-66
2022/06/23 08:28:48;;;;;;;4.93;3.13;;;;;;;23.69;51.63;100949.72;5065395;28;20519;-66
2022/06/23 08:31:19;;;;;;;4.43;2.92;;;;;;;23.55;51.44;100954.66;5065390;28;20404;-66
2022/06/23 08:33:46;;;;;;;4.35;3.05;;;;;;;23.55;51.78;100960.91;5065031;28;20491;-66
2022/06/23 08:36:19;;;;;;;4.55;3.33;;;;;;;23.56;52.64;100981.47;5065724;28;20427;-67
2022/06/23 08:38:51;;;;;;;4.55;3.30;;;;;;;23.63;52.89;100978.59;5064886;28;20426;-66
2022/06/23 08:41:25;;;;;;;4.53;3.30;;;;;;;23.66;52.85;100976.22;5052958;28;20416;-66
2022/06/23 08:44:01;;;;;;;4.20;2.70;;;;;;;23.75;53.16;100973.88;5051578;28;20929;-66
2022/06/23 08:46:37;;;;;;;5.05;2.95;;;;;;;23.84;53.17;100974.28;5051810;28;20893;-66
2022/06/23 08:49:08;;;;;;;3.38;2.50;;;;;;;23.91;52.95;100976.81;5051792;28;20457;-67
2022/06/23 08:51:45;;;;;;;5.33;2.83;;;;;;;24.00;53.50;100972.56;5052099;28;20500;-66
2022/06/23 08:54:21;;;;;;;4.45;3.15;;;;;;;23.93;51.88;100967.38;5051877;28;20412;-66
2022/06/23 08:56:55;;;;;;;5.32;2.58;;;;;;;24.01;52.09;100969.63;5049572;28;20420;-66
2022/06/23 08:59:31;;;;;;;4.65;2.80;;;;;;;23.99;52.46;100965.53;5037694;28;20503;-66
2022/06/23 09:02:09;;;;;;;4.90;3.10;;;;;;;24.16;52.58;100968.97;5052665;28;20870;-66
2022/06/23 09:04:47;;;;;;;4.85;3.08;;;;;;;24.30;52.69;100969.38;5051241;28;20413;-66
2022/06/23 09:07:27;;;;;;;5.70;2.97;;;;;;;24.48;52.43;100972.81;5051755;28;20496;-66
2022/06/23 09:10:02;;;;;;;4.30;2.50;;;;;;;24.56;52.17;100970.47;5038238;28;20436;-66
2022/06/23 09:12:37;;;;;;;3.50;2.65;;;;;;;24.67;50.91;100962.41;5050220;28;20924;-65
2022/06/23 09:15:43;;;;;;;3.63;2.88;;;;;;;24.78;50.51;100966.88;5039077;28;20992;-65
2022/06/23 09:18:49;;;;;;;4.57;3.40;;;;;;;24.92;50.42;100961.81;5045359;28;20493;-65
2022/06/23 09:21:30;;;;;;;3.45;2.25;;;;;;;25.03;49.83;100959.97;5046930;28;20941;-65
2022/06/23 09:24:46;;;;;;;2.30;2.10;;;;;;;25.23;48.98;100957.41;5046792;28;20417;-66
2022/06/23 09:27:21;;;;;;;2.40;2.20;;;;;;;25.45;49.12;100959.19;5041628;28;20411;-65
2022/06/23 09:29:56;;;;;;;3.10;2.22;;;;;;;25.58;48.88;100955.19;5037704;28;20869;-65
2022/06/23 09:32:56;;;;;;;5.78;2.50;;;;;;;25.77;48.11;100956.34;5037140;28;20910;-65
2022/06/23 09:35:50;;;;;;;3.53;2.08;;;;;;;25.88;46.37;100954.50;5043227;28;20875;-65
2022/06/23 09:38:38;;;;;;;3.08;2.35;;;;;;;25.96;45.59;100962.13;5039681;28;20413;-68
2022/06/23 09:41:17;;;;;;;2.53;2.10;;;;;;;26.07;45.77;100950.25;5034404;28;20509;-66
2022/06/23 09:44:25;;;;;;;3.45;2.40;;;;;;;26.11;44.73;100953.25;5036168;28;20504;-65
2022/06/23 09:47:10;;;;;;;2.80;2.20;;;;;;;26.26;45.25;100957.88;5038921;28;20505;-66
2022/06/23 09:50:16;;;;;;;2.37;1.97;;;;;;;26.27;45.09;100973.91;5041378;28;20499;-66
2022/06/23 09:53:04;;;;;;;3.42;1.75;;;;;;;26.40;43.79;100963.59;5037158;28;20466;-65
2022/06/23 09:56:12;;;;;;;3.25;1.92;;;;;;;26.52;44.47;100969.59;5048707;28;20408;-67
2022/06/23 09:59:06;;;;;;;3.95;1.85;;;;;;;26.68;43.27;100965.81;5024666;28;20467;-65
2022/06/23 10:01:44;;;;;;;3.03;1.88;;;;;;;26.84;43.11;100965.81;5032198;28;20446;-66
2022/06/23 10:04:26;;;;;;;2.08;1.70;;;;;;;26.92;41.94;100964.44;5048529;28;20826;-65
2022/06/23 10:07:32;;;;;;;2.80;1.75;;;;;;;26.98;42.31;100960.66;5041264;28;20417;-65
2022/06/23 10:10:17;;;;;;;2.38;1.75;;;;;;;27.06;41.39;100951.91;5040844;28;20432;-65
2022/06/23 10:13:19;;;;;;;4.60;1.70;;;;;;;27.18;41.31;100952.44;5049869;28;20504;-65
2022/06/23 10:16:02;;;;;;;3.70;1.88;;;;;;;27.22;41.16;100953.50;5050339;28;20949;-65
2022/06/23 10:19:00;;;;;;;3.22;2.17;;;;;;;27.24;41.17;100947.78;5049984;28;20415;-66
2022/06/23 10:21:37;;;;;;;2.70;1.83;;;;;;;27.31;41.12;100961.97;5043831;28;20448;-66
2022/06/23 10:24:30;;;;;;;2.47;1.90;;;;;;;27.38;40.43;100954.31;5044356;28;20515;-65
2022/06/23 10:27:17;;;;;;;3.37;2.03;;;;;;;27.30;40.78;100954.06;5034496;28;20497;-66
2022/06/23 10:30:05;;;;;;;3.78;2.40;;;;;;;27.38;41.04;100954.31;5049020;28;20519;-66
2022/06/23 10:32:58;;;;;;;3.60;1.90;;;;;;;27.41;40.56;100961.94;5036250;28;20454;-67
2022/06/23 10:35:55;;;;;;;3.10;2.22;;;;;;;27.49;40.48;100960.53;5049634;28;20420;-65
2022/06/23 10:38:46;;;;;;;5.13;1.90;;;;;;;27.50;40.59;100955.94;5040483;28;20491;-65
2022/06/23 10:41:38;;;;;;;2.95;1.70;;;;;;;27.50;40.41;100955.94;5037513;28;20409;-65
2022/06/23 10:44:44;;;;;;;3.27;1.80;;;;;;;27.50;40.23;100953.22;5049329;28;20491;-65
2022/06/23 10:47:24;;;;;;;5.13;2.50;;;;;;;27.57;40.01;100951.00;5049589;28;20417;-67
2022/06/23 10:50:17;;;;;;;2.58;1.83;;;;;;;27.63;39.67;100953.41;5049350;28;21347;-66
2022/06/23 10:52:59;;;;;;;3.10;1.60;;;;;;;27.71;38.90;100968.34;5049259;28;20790;-65
2022/06/23 10:55:41;;;;;;;3.42;1.75;;;;;;;27.69;39.31;100958.84;5049690;28;20488;-66
2022/06/23 10:58:46;;;;;;;3.20;1.60;;;;;;;27.80;38.94;100963.13;5049410;28;20487;-66
2022/06/23 11:01:34;;;;;;;2.13;1.30;;;;;;;27.84;38.06;100964.22;5049096;28;20507;-66
2022/06/23 11:04:46;;;;;;;2.90;1.33;;;;;;;27.91;37.79;100953.03;5044913;28;21008;-66
2022/06/23 11:07:25;;;;;;;2.80;1.80;;;;;;;27.96;37.18;100948.38;5043478;28;20495;-65
2022/06/23 11:10:03;;;;;;;4.90;1.58;;;;;;;28.01;37.21;100944.81;5049867;28;20964;-67
2022/06/23 11:12:45;;;;;;;1.48;1.30;;;;;;;28.06;36.99;100939.34;5041938;28;20428;-66
2022/06/23 11:15:23;;;;;;;2.53;1.50;;;;;;;28.10;36.34;100940.38;5037008;28;20439;-66
2022/06/23 11:18:08;;;;;;;1.80;1.40;;;;;;;28.13;36.88;100930.84;5049011;28;20499;-65
2022/06/23 11:20:47;;;;;;;2.10;1.20;;;;;;;28.13;36.25;100923.47;5034665;28;20437;-65
2022/06/23 11:23:23;;;;;;;1.30;1.20;;;;;;;28.17;36.68;100929.19;5049105;28;20499;-64
2022/06/23 11:26:01;;;;;;;3.40;1.40;;;;;;;28.21;35.80;100920.13;5049091;28;20444;-64
2022/06/23 11:28:53;;;;;;;2.80;1.27;;;;;;;28.18;35.79;100912.53;5049063;28;20420;-65
2022/06/23 11:31:34;;;;;;;2.90;1.30;;;;;;;28.20;36.27;100909.53;5049023;28;20440;-65
2022/06/23 11:34:19;;;;;;;2.53;1.50;;;;;;;28.27;36.41;100906.47;5047211;28;20497;-65
2022/06/23 11:37:02;;;;;;;2.60;1.38;;;;;;;28.32;36.31;100907.25;5049265;28;20436;-65
2022/06/23 11:39:57;;;;;;;2.60;1.40;;;;;;;28.37;36.34;100901.75;5045477;28;20420;-64
2022/06/23 11:42:45;;;;;;;1.65;1.38;;;;;;;28.37;36.40;100901.75;5050147;28;20488;-65
2022/06/23 11:45:29;;;;;;;2.55;1.50;;;;;;;28.39;36.40;100894.09;5052349;28;20493;-64
2022/06/23 11:48:13;;;;;;;3.72;1.40;;;;;;;28.37;37.02;100896.31;5047312;28;20444;-65
2022/06/23 11:50:48;;;;;;;3.10;1.40;;;;;;;28.36;37.19;100891.97;5047766;28;20428;-64
2022/06/23 11:53:26;;;;;;;2.08;1.35;;;;;;;28.39;37.26;100891.38;5037774;28;20546;-64
2022/06/23 11:55:57;;;;;;;1.67;1.48;;;;;;;28.38;37.52;100888.97;5044159;28;20499;-66
2022/06/23 11:58:42;;;;;;;2.20;1.50;;;;;;;28.42;37.07;100892.72;5037786;28;20764;-65
2022/06/23 12:01:17;;;;;;;2.67;1.70;;;;;;;28.45;37.86;100884.00;5046708;28;20412;-64
2022/06/23 12:04:16;;;;;;;2.13;1.48;;;;;;;28.41;37.47;100877.47;5047007;28;20487;-64
2022/06/23 12:06:55;;;;;;;1.48;1.30;;;;;;;28.40;37.95;100867.66;5047109;28;20507;-65
2022/06/23 12:09:28;;;;;;;3.28;1.40;;;;;;;28.41;38.33;100861.09;5045221;28;20432;-65
2022/06/23 12:11:57;;;;;;;2.33;1.25;;;;;;;28.35;38.66;100862.25;5037360;28;20491;-65
2022/06/23 12:14:26;;;;;;;2.95;1.85;;;;;;;28.32;38.56;100862.81;5045651;28;20496;-65
2022/06/23 12:16:57;;;;;;;3.65;1.58;;;;;;;28.29;37.59;100855.19;5050803;28;20859;-65
2022/06/23 12:19:34;;;;;;;2.75;1.60;;;;;;;28.28;38.46;100859.03;5044007;28;20408;-66
2022/06/23 12:22:09;;;;;;;2.58;1.52;;;;;;;28.30;38.76;100852.19;5046357;28;20419;-65
2022/06/23 12:24:43;;;;;;;2.13;1.50;;;;;;;28.29;39.07;100856.03;5052481;28;20417;-65
2022/06/23 12:27:22;;;;;;;2.67;1.67;;;;;;;28.22;39.28;100850.91;5047886;28;21025;-65
2022/06/23 12:30:05;;;;;;;3.33;1.77;;;;;;;28.15;39.77;100855.06;5052206;28;20433;-65
2022/06/23 12:32:41;;;;;;;2.20;1.48;;;;;;;28.13;39.70;100847.16;5038942;28;20976;-65